createdAt,value
2018-03-21T00:01:11.201Z,5.57
2018-03-21T00:03:37.818Z,9.03
2018-03-21T00:06:04.429Z,6.37
2018-03-21T00:08:31.010Z,10.70
2018-03-21T00:10:57.621Z,6.90
2018-03-21T00:13:24.214Z,8.80
2018-03-21T00:15:50.833Z,7.07
2018-03-21T00:18:17.414Z,7.13
2018-03-21T00:20:44.377Z,6.40
2018-03-21T00:23:10.958Z,7.20
2018-03-21T00:25:37.598Z,7.70
2018-03-21T00:28:04.217Z,6.30
2018-03-21T00:30:30.808Z,11.33
2018-03-21T00:32:57.422Z,6.80
2018-03-21T00:35:24.021Z,5.60
2018-03-21T00:37:50.639Z,7.03
2018-03-21T00:40:17.315Z,5.93
2018-03-21T00:42:43.939Z,6.20
2018-03-21T00:45:10.524Z,7.13
2018-03-21T00:47:37.158Z,6.67
2018-03-21T00:50:03.735Z,5.87
2018-03-21T00:52:30.356Z,7.63
2018-03-21T00:54:57.033Z,5.70
2018-03-21T00:57:23.696Z,5.63
2018-03-21T00:59:50.283Z,6.37
2018-03-21T01:02:16.939Z,4.30
2018-03-21T01:04:43.549Z,8.50
2018-03-21T01:07:10.207Z,4.77
2018-03-21T01:09:36.867Z,4.80
2018-03-21T01:12:03.485Z,4.47
2018-03-21T01:14:30.163Z,5.03
2018-03-21T01:16:56.784Z,10.80
2018-03-21T01:19:23.432Z,4.67
2018-03-21T01:21:50.877Z,7.03
2018-03-21T01:24:17.528Z,5.27
2018-03-21T01:26:44.118Z,4.87
2018-03-21T01:29:10.729Z,6.80
2018-03-21T01:31:37.315Z,7.17
2018-03-21T01:34:03.974Z,7.50
2018-03-21T01:36:30.567Z,5.77
2018-03-21T01:38:57.181Z,4.43
2018-03-21T01:41:23.782Z,5.50
2018-03-21T01:43:50.398Z,4.37
2018-03-21T01:46:17.051Z,5.03
2018-03-21T01:48:43.663Z,4.10
2018-03-21T01:51:10.274Z,4.77
2018-03-21T01:53:36.880Z,7.67
2018-03-21T01:56:03.493Z,17.63
2018-03-21T01:58:30.093Z,5.10
2018-03-21T02:00:56.738Z,5.20
2018-03-21T02:03:23.328Z,5.13
2018-03-21T02:05:49.964Z,5.00
2018-03-21T02:08:16.541Z,7.53
2018-03-21T02:10:43.176Z,7.23
2018-03-21T02:13:09.766Z,8.23
2018-03-21T02:15:36.376Z,5.27
2018-03-21T02:18:02.973Z,4.80
2018-03-21T02:20:29.574Z,7.00
2018-03-21T02:22:56.191Z,5.00
2018-03-21T02:25:22.829Z,5.30
2018-03-21T02:27:49.468Z,6.27
2018-03-21T02:30:16.056Z,5.07
2018-03-21T02:32:42.684Z,7.70
2018-03-21T02:38:38.839Z,6.13
2018-03-21T02:41:05.415Z,6.77
2018-03-21T02:43:32.045Z,5.60
2018-03-21T02:45:58.631Z,13.17
2018-03-21T02:48:25.217Z,8.50
2018-03-21T02:50:51.831Z,6.00
2018-03-21T02:53:18.455Z,5.50
2018-03-21T02:55:45.083Z,11.90
2018-03-21T02:58:11.680Z,6.00
2018-03-21T03:00:38.265Z,5.43
2018-03-21T03:03:04.876Z,5.53
2018-03-21T03:05:31.501Z,15.63
2018-03-21T03:07:58.083Z,8.20
2018-03-21T03:10:24.684Z,4.63
2018-03-21T03:12:51.307Z,12.77
2018-03-21T03:15:17.931Z,5.10
2018-03-21T03:17:44.523Z,5.50
2018-03-21T03:20:11.109Z,4.53
2018-03-21T03:22:37.713Z,6.60
2018-03-21T03:25:04.326Z,5.50
2018-03-21T03:27:30.969Z,4.73
2018-03-21T03:29:57.567Z,4.50
2018-03-21T03:32:24.166Z,4.80
2018-03-21T03:34:50.758Z,5.03
2018-03-21T03:37:17.351Z,4.80
2018-03-21T03:39:43.948Z,4.37
2018-03-21T03:42:10.572Z,5.70
2018-03-21T03:44:37.158Z,7.70
2018-03-21T03:47:03.829Z,4.90
2018-03-21T03:49:30.424Z,4.57
2018-03-21T03:51:57.079Z,6.10
2018-03-21T03:54:23.668Z,5.10
2018-03-21T03:56:50.305Z,4.20
2018-03-21T03:59:16.930Z,4.57
2018-03-21T04:01:43.522Z,5.53
2018-03-21T04:04:10.104Z,3.97
2018-03-21T04:06:36.739Z,11.30
2018-03-21T04:09:03.345Z,3.53
2018-03-21T04:11:29.953Z,4.40
2018-03-21T04:13:56.544Z,3.60
2018-03-21T04:16:23.161Z,3.93
2018-03-21T04:18:49.791Z,4.07
2018-03-21T04:21:16.522Z,4.13
2018-03-21T04:23:43.124Z,3.70
2018-03-21T04:26:09.745Z,4.73
2018-03-21T04:28:36.380Z,7.40
2018-03-21T04:31:02.970Z,5.47
2018-03-21T04:33:30.225Z,5.00
2018-03-21T04:35:56.958Z,6.63
2018-03-21T04:38:23.547Z,3.70
2018-03-21T04:40:50.192Z,3.90
2018-03-21T04:43:16.802Z,4.20
2018-03-21T04:45:43.402Z,3.87
2018-03-21T04:48:10.007Z,6.63
2018-03-21T04:50:36.655Z,22.73
2018-03-21T04:53:03.368Z,3.67
2018-03-21T04:55:29.968Z,3.50
2018-03-21T04:57:56.592Z,4.57
2018-03-21T05:00:23.192Z,6.53
2018-03-21T05:02:49.984Z,4.60
2018-03-21T05:05:16.583Z,4.43
2018-03-21T05:07:43.226Z,6.10
2018-03-21T05:10:09.900Z,6.20
2018-03-21T05:12:36.844Z,5.40
2018-03-21T05:15:03.420Z,3.97
2018-03-21T05:17:30.020Z,6.50
2018-03-21T05:19:56.638Z,4.13
2018-03-21T05:22:23.212Z,8.93
2018-03-21T05:24:51.063Z,6.73
2018-03-21T05:27:17.638Z,4.70
2018-03-21T05:29:44.250Z,4.17
2018-03-21T05:32:10.847Z,6.00
2018-03-21T05:34:37.461Z,6.77
2018-03-21T05:37:04.056Z,4.40
2018-03-21T05:39:30.674Z,7.27
2018-03-21T05:41:57.276Z,7.20
2018-03-21T05:44:23.903Z,6.97
2018-03-21T05:46:50.491Z,5.57
2018-03-21T05:49:17.286Z,4.00
2018-03-21T05:51:43.956Z,4.00
2018-03-21T05:54:10.676Z,6.93
2018-03-21T05:56:37.281Z,7.50
2018-03-21T05:59:03.883Z,4.40
2018-03-21T06:01:30.481Z,2.60
2018-03-21T06:03:57.106Z,3.23
2018-03-21T06:06:23.742Z,3.57
2018-03-21T06:08:50.396Z,5.17
2018-03-21T06:11:17.086Z,6.67
2018-03-21T06:13:43.767Z,4.33
2018-03-21T06:16:10.372Z,5.33
2018-03-21T06:18:36.975Z,4.60
2018-03-21T06:21:03.604Z,4.23
2018-03-21T06:23:30.222Z,4.27
2018-03-21T06:25:56.949Z,6.13
2018-03-21T06:28:23.640Z,2.70
2018-03-21T06:30:50.290Z,5.37
2018-03-21T06:33:16.958Z,3.40
2018-03-21T06:35:43.644Z,17.80
2018-03-21T06:38:10.349Z,3.90
2018-03-21T06:40:37.205Z,3.73
2018-03-21T06:43:03.824Z,6.57
2018-03-21T06:45:30.598Z,4.83
2018-03-21T06:47:57.241Z,8.17
2018-03-21T06:50:23.949Z,5.27
2018-03-21T06:52:50.565Z,3.70
2018-03-21T06:55:17.524Z,4.73
2018-03-21T06:57:44.139Z,7.37
2018-03-21T07:00:10.747Z,4.90
2018-03-21T07:02:37.376Z,4.23
2018-03-21T07:05:03.963Z,3.70
2018-03-21T07:07:30.789Z,4.17
2018-03-21T07:09:57.406Z,5.00
2018-03-21T07:12:24.039Z,8.23
2018-03-21T07:14:56.624Z,4.00
2018-03-21T07:17:23.266Z,5.77
2018-03-21T07:19:49.889Z,7.03
2018-03-21T07:22:16.502Z,5.63
2018-03-21T07:24:43.142Z,6.17
2018-03-21T07:27:09.734Z,4.87
2018-03-21T07:29:36.432Z,4.30
2018-03-21T07:32:03.015Z,3.63
2018-03-21T07:34:29.783Z,4.50
2018-03-21T07:36:56.372Z,2.97
2018-03-21T07:39:22.973Z,3.43
2018-03-21T07:41:49.571Z,5.00
2018-03-21T07:44:16.292Z,6.87
2018-03-21T07:46:42.978Z,4.10
2018-03-21T07:49:09.582Z,3.53
2018-03-21T07:51:36.198Z,4.20
2018-03-21T07:54:02.768Z,6.00
2018-03-21T07:56:29.398Z,5.10
2018-03-21T07:58:55.991Z,6.13
2018-03-21T08:01:22.598Z,3.77
2018-03-21T08:03:49.224Z,5.70
2018-03-21T08:06:15.824Z,7.90
2018-03-21T08:08:42.465Z,3.40
2018-03-21T08:11:09.048Z,2.63
2018-03-21T08:13:35.684Z,6.27
2018-03-21T08:16:02.290Z,4.00
2018-03-21T08:18:28.917Z,4.70
2018-03-21T08:20:56.404Z,3.00
2018-03-21T08:23:23.028Z,3.60
2018-03-21T08:25:49.658Z,4.70
2018-03-21T08:28:16.240Z,3.27
2018-03-21T08:30:42.859Z,5.70
2018-03-21T08:33:09.445Z,3.47
2018-03-21T08:35:36.058Z,8.27
2018-03-21T08:38:02.682Z,5.90
2018-03-21T08:40:29.992Z,8.90
2018-03-21T08:42:56.668Z,4.00
2018-03-21T08:45:23.310Z,11.77
2018-03-21T08:47:49.917Z,2.77
2018-03-21T08:50:16.748Z,2.73
2018-03-21T08:52:43.460Z,6.57
2018-03-21T08:55:10.123Z,3.57
2018-03-21T08:57:36.757Z,4.00
2018-03-21T09:00:03.324Z,3.07
2018-03-21T09:02:29.935Z,2.77
2018-03-21T09:04:56.588Z,2.27
2018-03-21T09:07:23.187Z,2.33
2018-03-21T09:09:49.817Z,2.90
2018-03-21T09:12:16.480Z,3.83
2018-03-21T09:14:43.101Z,2.93
2018-03-21T09:17:09.703Z,2.70
2018-03-21T09:19:36.329Z,4.53
2018-03-21T09:22:02.914Z,2.33
2018-03-21T09:24:29.531Z,8.40
2018-03-21T09:26:56.147Z,4.37
2018-03-21T09:29:22.795Z,3.23
2018-03-21T09:31:49.393Z,3.20
2018-03-21T09:34:16.255Z,4.53
2018-03-21T09:36:42.848Z,2.30
2018-03-21T09:39:09.466Z,6.37
2018-03-21T09:41:36.131Z,2.40
2018-03-21T09:44:02.726Z,2.30
2018-03-21T09:46:29.348Z,3.77
2018-03-21T09:48:55.954Z,4.10
2018-03-21T09:51:22.566Z,2.93
2018-03-21T09:53:49.529Z,2.00
2018-03-21T09:56:16.150Z,3.23
2018-03-21T09:58:42.744Z,3.17
2018-03-21T10:01:09.426Z,1.93
2018-03-21T10:03:36.043Z,1.77
2018-03-21T10:06:02.679Z,5.23
2018-03-21T10:08:29.309Z,3.83
2018-03-21T10:10:55.988Z,13.60
2018-03-21T10:13:22.879Z,5.63
2018-03-21T10:15:49.501Z,3.73
2018-03-21T10:18:16.125Z,5.53
2018-03-21T10:20:42.744Z,2.90
2018-03-21T10:23:09.351Z,5.17
2018-03-21T10:25:35.950Z,7.00
2018-03-21T10:28:02.763Z,2.60
2018-03-21T10:30:29.362Z,2.83
2018-03-21T10:32:55.995Z,1.97
2018-03-21T10:35:22.693Z,2.13
2018-03-21T10:37:49.369Z,2.67
2018-03-21T10:40:16.124Z,4.77
2018-03-21T10:42:42.808Z,2.70
2018-03-21T10:45:09.447Z,2.33
2018-03-21T10:47:36.056Z,2.20
2018-03-21T10:50:02.651Z,2.23
2018-03-21T10:52:38.778Z,2.10
2018-03-21T10:54:55.855Z,3.03
2018-03-21T10:57:22.481Z,7.60
2018-03-21T10:59:49.101Z,5.50
2018-03-21T11:02:15.725Z,1.83
2018-03-21T11:04:42.316Z,2.17
2018-03-21T11:07:08.998Z,2.33
2018-03-21T11:09:35.632Z,2.20
2018-03-21T11:12:03.151Z,2.33
2018-03-21T11:14:29.734Z,2.00
2018-03-21T11:16:56.361Z,2.27
2018-03-21T11:19:23.011Z,1.20
2018-03-21T11:21:49.623Z,1.53
2018-03-21T11:24:16.305Z,2.90
2018-03-21T11:26:42.896Z,1.73
2018-03-21T11:29:09.521Z,15.60
2018-03-21T11:31:36.120Z,2.13
2018-03-21T11:34:02.750Z,5.33
2018-03-21T11:36:29.348Z,1.43
2018-03-21T11:38:55.973Z,2.07
2018-03-21T11:41:22.898Z,2.23
2018-03-21T11:43:49.541Z,1.87
2018-03-21T11:46:16.143Z,2.60
2018-03-21T11:48:42.796Z,1.87
2018-03-21T11:51:09.494Z,4.20
2018-03-21T11:53:36.143Z,3.90
2018-03-21T11:56:02.732Z,2.30
2018-03-21T11:58:29.329Z,1.73
2018-03-21T12:00:55.940Z,3.63
2018-03-21T12:03:22.904Z,44.80
2018-03-21T12:05:49.757Z,2.47
2018-03-21T12:08:16.638Z,9.13
2018-03-21T12:10:43.224Z,5.33
2018-03-21T12:13:09.855Z,4.70
2018-03-21T12:15:36.487Z,2.43
2018-03-21T12:18:03.128Z,1.80
2018-03-21T12:20:29.722Z,6.30
2018-03-21T12:22:56.336Z,6.37
2018-03-21T12:25:22.946Z,4.63
2018-03-21T12:27:49.802Z,2.10
2018-03-21T12:30:16.440Z,3.07
2018-03-21T12:32:43.052Z,2.13
2018-03-21T12:35:09.717Z,6.27
2018-03-21T12:37:36.351Z,2.03
2018-03-21T12:40:02.965Z,2.50
2018-03-21T12:42:29.675Z,2.30
2018-03-21T12:44:56.289Z,3.20
2018-03-21T12:47:22.940Z,2.57
2018-03-21T12:49:49.552Z,7.80
2018-03-21T12:52:16.246Z,3.73
2018-03-21T12:54:42.879Z,4.27
2018-03-21T12:57:09.509Z,1.70
2018-03-21T12:59:36.140Z,2.90
2018-03-21T13:02:02.774Z,3.47
2018-03-21T13:04:29.416Z,3.27
2018-03-21T13:06:56.073Z,1.77
2018-03-21T13:09:22.721Z,1.97
2018-03-21T13:11:49.341Z,3.83
2018-03-21T13:14:16.048Z,2.10
2018-03-21T13:16:42.857Z,3.77
2018-03-21T13:19:10.300Z,4.07
2018-03-21T13:21:38.240Z,2.23
2018-03-21T13:24:05.203Z,5.10
2018-03-21T13:26:31.802Z,2.30
2018-03-21T13:28:58.668Z,1.73
2018-03-21T13:31:25.271Z,4.13
2018-03-21T13:33:51.867Z,3.00
2018-03-21T13:36:18.481Z,1.63
2018-03-21T13:38:45.064Z,2.17
2018-03-21T13:41:11.682Z,17.33
2018-03-21T13:43:38.270Z,2.23
2018-03-21T13:46:04.882Z,2.00
2018-03-21T13:48:31.468Z,3.80
2018-03-21T13:50:58.107Z,2.23
2018-03-21T13:53:24.704Z,1.67
2018-03-21T13:55:51.329Z,2.80
2018-03-21T13:58:17.927Z,4.10
2018-03-21T14:00:44.532Z,2.20
2018-03-21T14:03:11.218Z,4.63
2018-03-21T14:05:37.837Z,2.30
2018-03-21T14:08:04.474Z,1.90
2018-03-21T14:10:31.132Z,1.80
2018-03-21T14:12:57.830Z,2.43
2018-03-21T14:15:24.532Z,2.90
2018-03-21T14:17:51.560Z,2.53
2018-03-21T14:20:18.267Z,6.03
2018-03-21T14:22:44.914Z,2.60
2018-03-21T14:25:11.905Z,2.53
2018-03-21T14:27:38.498Z,5.30
2018-03-21T14:30:05.274Z,5.20
2018-03-21T14:32:31.917Z,2.07
2018-03-21T14:34:58.512Z,1.83
2018-03-21T14:37:25.191Z,2.20
2018-03-21T14:39:52.345Z,3.30
2018-03-21T14:42:18.988Z,3.17
2018-03-21T14:44:45.574Z,2.70
2018-03-21T14:47:12.169Z,2.40
2018-03-21T14:49:38.962Z,3.10
2018-03-21T14:52:05.545Z,4.83
2018-03-21T14:54:32.151Z,2.17
2018-03-21T14:56:58.762Z,2.90
2018-03-21T14:59:25.422Z,2.30
2018-03-21T15:01:52.017Z,2.10
2018-03-21T15:04:18.637Z,7.80
2018-03-21T15:06:45.485Z,7.83
2018-03-21T15:09:12.160Z,2.97
2018-03-21T15:11:38.814Z,2.90
2018-03-21T15:14:05.424Z,4.50
2018-03-21T15:16:32.004Z,3.60
2018-03-21T15:18:58.629Z,4.17
2018-03-21T15:21:25.269Z,2.73
2018-03-21T15:23:51.919Z,2.50
2018-03-21T15:26:18.532Z,3.47
2018-03-21T15:28:45.120Z,5.13
2018-03-21T15:31:11.747Z,2.97
2018-03-21T15:33:38.384Z,3.47
2018-03-21T15:36:05.000Z,11.00
2018-03-21T15:38:31.649Z,3.80
2018-03-21T15:40:58.270Z,2.93
2018-03-21T15:43:25.072Z,6.27
2018-03-21T15:45:51.729Z,2.27
2018-03-21T15:48:18.328Z,7.00
2018-03-21T15:50:44.952Z,6.70
2018-03-21T15:53:11.539Z,5.00
2018-03-21T15:55:38.174Z,5.60
2018-03-21T15:58:04.826Z,4.70
2018-03-21T16:00:31.424Z,4.17
2018-03-21T16:02:58.095Z,2.60
2018-03-21T16:05:24.737Z,2.73
2018-03-21T16:07:51.360Z,2.23
2018-03-21T16:10:18.356Z,4.90
2018-03-21T16:12:44.973Z,2.57
2018-03-21T16:15:11.581Z,2.70
2018-03-21T16:17:38.417Z,3.20
2018-03-21T16:20:05.236Z,4.10
2018-03-21T16:22:31.933Z,7.00
2018-03-21T16:24:58.604Z,2.23
2018-03-21T16:27:25.247Z,8.73
2018-03-21T16:29:51.865Z,4.90
2018-03-21T16:32:18.474Z,2.37
2018-03-21T16:34:45.149Z,7.73
2018-03-21T16:37:11.786Z,2.50
2018-03-21T16:39:38.391Z,3.00
2018-03-21T16:42:05.000Z,3.17
2018-03-21T16:44:31.611Z,2.00
2018-03-21T16:46:58.201Z,2.60
2018-03-21T16:49:24.828Z,2.90
2018-03-21T16:51:51.414Z,2.40
2018-03-21T16:54:18.274Z,2.70
2018-03-21T16:56:44.860Z,4.30
2018-03-21T16:59:11.527Z,4.20
2018-03-21T17:01:38.134Z,8.43
2018-03-21T17:04:04.759Z,10.10
2018-03-21T17:06:31.362Z,9.40
2018-03-21T17:08:58.026Z,4.13
2018-03-21T17:11:24.617Z,4.57
2018-03-21T17:13:51.261Z,4.97
2018-03-21T17:16:17.881Z,3.20
2018-03-21T17:18:44.617Z,8.10
2018-03-21T17:21:11.236Z,2.77
2018-03-21T17:23:37.873Z,4.53
2018-03-21T17:26:04.483Z,3.37
2018-03-21T17:28:31.063Z,4.80
2018-03-21T17:30:57.685Z,3.63
2018-03-21T17:33:24.269Z,9.57
2018-03-21T17:35:50.893Z,12.13
2018-03-21T17:38:17.764Z,13.90
2018-03-21T17:40:44.781Z,8.20
2018-03-21T17:43:11.400Z,3.73
2018-03-21T17:45:38.026Z,3.83
2018-03-21T17:48:04.675Z,7.63
2018-03-21T17:50:31.711Z,10.83
2018-03-21T17:52:58.329Z,8.60
2018-03-21T17:55:24.952Z,12.73
2018-03-21T17:57:51.570Z,10.50
2018-03-21T18:00:18.213Z,6.43
2018-03-21T18:02:44.764Z,10.37
2018-03-21T18:05:11.380Z,10.30
2018-03-21T18:07:38.306Z,10.03
2018-03-21T18:10:04.964Z,5.27
2018-03-21T18:12:31.528Z,5.00
2018-03-21T18:14:58.457Z,10.50
2018-03-21T18:17:25.089Z,9.33
2018-03-21T18:19:51.698Z,5.23
2018-03-21T18:22:18.332Z,17.43
2018-03-21T18:24:44.985Z,4.20
2018-03-21T18:27:11.596Z,7.33
2018-03-21T18:29:38.204Z,6.07
2018-03-21T18:32:04.900Z,9.93
2018-03-21T18:34:31.499Z,6.70
2018-03-21T18:36:58.095Z,13.57
2018-03-21T18:39:24.713Z,5.80
2018-03-21T18:41:51.335Z,6.73
2018-03-21T18:44:17.980Z,10.37
2018-03-21T18:46:44.588Z,9.97
2018-03-21T18:49:11.339Z,10.00
2018-03-21T18:51:37.988Z,23.50
2018-03-21T18:54:04.596Z,22.17
2018-03-21T18:56:31.221Z,15.13
2018-03-21T18:58:57.838Z,13.73
2018-03-21T19:01:24.472Z,24.47
2018-03-21T19:03:51.439Z,11.60
2018-03-21T19:06:18.064Z,13.20
2018-03-21T19:08:44.673Z,9.07
2018-03-21T19:11:11.309Z,17.33
2018-03-21T19:13:38.238Z,14.80
2018-03-21T19:16:04.859Z,15.53
2018-03-21T19:18:31.512Z,10.63
2018-03-21T19:20:58.188Z,13.00
2018-03-21T19:23:24.818Z,22.17
2018-03-21T19:25:51.443Z,11.87
2018-03-21T19:28:18.070Z,12.60
2018-03-21T19:30:44.668Z,9.90
2018-03-21T19:33:11.293Z,20.97
2018-03-21T19:35:37.900Z,14.80
2018-03-21T19:38:04.536Z,11.13
2018-03-21T19:40:31.182Z,19.30
2018-03-21T19:42:57.818Z,12.60
2018-03-21T19:45:24.427Z,9.23
2018-03-21T19:47:51.073Z,13.70
2018-03-21T19:50:17.691Z,12.50
2018-03-21T19:52:44.370Z,16.10
2018-03-21T19:55:10.994Z,12.40
2018-03-21T19:57:37.719Z,13.30
2018-03-21T20:00:04.372Z,9.03
2018-03-21T20:02:30.973Z,12.90
2018-03-21T20:04:57.611Z,10.53
2018-03-21T20:07:24.402Z,19.53
2018-03-21T20:09:51.793Z,13.07
2018-03-21T20:12:18.485Z,10.13
2018-03-21T20:14:45.144Z,9.50
2018-03-21T20:17:11.742Z,9.80
2018-03-21T20:19:38.360Z,9.07
2018-03-21T20:22:04.962Z,8.73
2018-03-21T20:24:31.784Z,9.10
2018-03-21T20:26:58.408Z,13.03
2018-03-21T20:29:25.021Z,11.40
2018-03-21T20:31:51.622Z,10.50
2018-03-21T20:34:18.255Z,15.00
2018-03-21T20:36:44.934Z,14.13
2018-03-21T20:39:11.479Z,11.87
2018-03-21T20:41:38.086Z,11.77
2018-03-21T20:44:04.684Z,12.60
2018-03-21T20:46:31.298Z,14.43
2018-03-21T20:48:57.960Z,16.13
2018-03-21T20:51:24.570Z,14.23
2018-03-21T20:53:51.247Z,9.50
2018-03-21T20:56:17.890Z,15.10
2018-03-21T20:58:44.546Z,19.90
2018-03-21T21:01:11.205Z,29.17
2018-03-21T21:03:37.846Z,15.33
2018-03-21T21:06:04.492Z,15.97
2018-03-21T21:08:31.142Z,14.67
2018-03-21T21:10:57.772Z,21.43
2018-03-21T21:13:25.096Z,18.83
2018-03-21T21:15:51.758Z,15.00
2018-03-21T21:18:18.558Z,15.20
2018-03-21T21:20:45.267Z,15.80
2018-03-21T21:23:11.926Z,17.30
2018-03-21T21:25:38.592Z,13.30
2018-03-21T21:28:05.266Z,23.70
2018-03-21T21:30:31.891Z,12.50
2018-03-21T21:32:58.530Z,20.67
2018-03-21T21:35:25.281Z,18.00
2018-03-21T21:37:51.964Z,20.70
2018-03-21T21:40:18.551Z,20.10
2018-03-21T21:42:45.166Z,24.00
2018-03-21T21:45:11.766Z,23.40
2018-03-21T21:47:38.396Z,24.83
2018-03-21T21:50:05.054Z,25.70
2018-03-21T21:52:31.697Z,26.03
2018-03-21T21:54:58.349Z,27.17
2018-03-21T21:57:24.964Z,25.90
2018-03-21T21:59:51.610Z,29.47
2018-03-21T22:02:18.215Z,28.23
2018-03-21T22:04:44.879Z,29.20
2018-03-21T22:07:11.487Z,32.47
2018-03-21T22:09:38.149Z,28.90
2018-03-21T22:12:04.761Z,25.40
2018-03-21T22:14:32.333Z,31.00
2018-03-21T22:16:59.035Z,32.27
2018-03-21T22:19:25.754Z,33.83
2018-03-21T22:21:52.432Z,28.63
2018-03-21T22:24:19.043Z,34.53
2018-03-21T22:26:45.674Z,35.10
2018-03-21T22:29:12.277Z,38.63
2018-03-21T22:31:38.907Z,38.40
2018-03-21T22:34:05.523Z,41.90
2018-03-21T22:36:32.376Z,34.23
2018-03-21T22:38:59.024Z,39.13
2018-03-21T22:41:25.767Z,42.13
2018-03-21T22:43:52.482Z,41.30
2018-03-21T22:46:19.325Z,48.93
2018-03-21T22:48:45.934Z,36.67
2018-03-21T22:51:12.583Z,42.10
2018-03-21T22:53:39.186Z,39.43
2018-03-21T22:56:05.824Z,41.83
2018-03-21T22:58:32.596Z,41.83
2018-03-21T23:00:59.247Z,41.20
2018-03-21T23:03:25.845Z,35.87
2018-03-21T23:05:52.549Z,37.20
2018-03-21T23:08:19.172Z,41.50
2018-03-21T23:10:45.821Z,45.37
2018-03-21T23:13:12.438Z,42.20
2018-03-21T23:15:39.125Z,41.30
2018-03-21T23:18:05.737Z,42.73
2018-03-21T23:20:32.401Z,41.17
2018-03-21T23:22:59.055Z,43.83
2018-03-21T23:25:25.643Z,45.80
2018-03-21T23:27:52.316Z,44.60
2018-03-21T23:30:18.895Z,44.50
2018-03-21T23:32:45.513Z,42.70
2018-03-21T23:35:12.146Z,43.30
2018-03-21T23:37:38.765Z,46.30
2018-03-21T23:40:05.356Z,43.23
2018-03-21T23:42:32.008Z,41.80
2018-03-21T23:44:58.645Z,43.27
2018-03-21T23:47:25.346Z,40.83
2018-03-21T23:49:51.982Z,42.80
2018-03-21T23:52:18.593Z,38.53
2018-03-21T23:54:45.242Z,43.00
2018-03-21T23:57:11.854Z,46.10
2018-03-21T23:59:38.459Z,46.07
